sensor_id;sensor_type;location;lat;lon;timestamp;P1;durP1;ratioP1;P2;durP2;ratioP2
30729;SDS011;17476;48.458;7.928;2023-04-20T00:02:15;0.27;;;0.27;;
30729;SDS011;17476;48.458;7.928;2023-04-20T00:04:41;0.30;;;0.30;;
30729;SDS011;17476;48.458;7.928;2023-04-20T00:07:07;0.40;;;0.40;;
30729;SDS011;17476;48.458;7.928;2023-04-20T00:09:33;0.30;;;0.30;;
30729;SDS011;17476;48.458;7.928;2023-04-20T00:11:59;0.20;;;0.20;;
30729;SDS011;17476;48.458;7.928;2023-04-20T00:14:25;0.30;;;0.30;;
30729;SDS011;17476;48.458;7.928;2023-04-20T00:16:51;0.20;;;0.20;;
30729;SDS011;17476;48.458;7.928;2023-04-20T00:19:17;0.30;;;0.30;;
30729;SDS011;17476;48.458;7.928;2023-04-20T00:21:44;0.30;;;0.30;;
30729;SDS011;17476;48.458;7.928;2023-04-20T00:24:11;0.20;;;0.20;;
30729;SDS011;17476;48.458;7.928;2023-04-20T00:26:37;0.20;;;0.20;;
30729;SDS011;17476;48.458;7.928;2023-04-20T00:29:03;0.30;;;0.30;;
30729;SDS011;17476;48.458;7.928;2023-04-20T00:31:30;0.30;;;0.30;;
30729;SDS011;17476;48.458;7.928;2023-04-20T00:33:56;0.20;;;0.20;;
30729;SDS011;17476;48.458;7.928;2023-04-20T00:36:22;0.30;;;0.30;;
30729;SDS011;17476;48.458;7.928;2023-04-20T00:38:47;0.37;;;0.37;;
30729;SDS011;17476;48.458;7.928;2023-04-20T00:41:13;0.30;;;0.30;;
30729;SDS011;17476;48.458;7.928;2023-04-20T00:43:48;0.30;;;0.30;;
30729;SDS011;17476;48.458;7.928;2023-04-20T00:46:15;0.20;;;0.20;;
30729;SDS011;17476;48.458;7.928;2023-04-20T00:48:41;0.30;;;0.30;;
30729;SDS011;17476;48.458;7.928;2023-04-20T00:51:07;0.30;;;0.30;;
30729;SDS011;17476;48.458;7.928;2023-04-20T00:53:33;0.30;;;0.30;;
30729;SDS011;17476;48.458;7.928;2023-04-20T00:56:00;0.43;;;0.43;;
30729;SDS011;17476;48.458;7.928;2023-04-20T00:58:26;0.30;;;0.30;;
30729;SDS011;17476;48.458;7.928;2023-04-20T01:00:52;0.30;;;0.30;;
30729;SDS011;17476;48.458;7.928;2023-04-20T01:03:18;0.30;;;0.30;;
30729;SDS011;17476;48.458;7.928;2023-04-20T01:05:44;0.30;;;0.30;;
30729;SDS011;17476;48.458;7.928;2023-04-20T01:08:10;0.30;;;0.30;;
30729;SDS011;17476;48.458;7.928;2023-04-20T01:10:36;0.40;;;0.40;;
30729;SDS011;17476;48.458;7.928;2023-04-20T01:13:02;0.30;;;0.30;;
30729;SDS011;17476;48.458;7.928;2023-04-20T01:15:27;0.30;;;0.30;;
30729;SDS011;17476;48.458;7.928;2023-04-20T01:17:53;0.20;;;0.20;;
30729;SDS011;17476;48.458;7.928;2023-04-20T01:20:19;0.20;;;0.20;;
30729;SDS011;17476;48.458;7.928;2023-04-20T01:22:48;0.20;;;0.20;;
30729;SDS011;17476;48.458;7.928;2023-04-20T01:25:17;0.30;;;0.30;;
30729;SDS011;17476;48.458;7.928;2023-04-20T01:27:44;0.30;;;0.30;;
30729;SDS011;17476;48.458;7.928;2023-04-20T01:30:10;0.30;;;0.30;;
30729;SDS011;17476;48.458;7.928;2023-04-20T01:32:37;0.30;;;0.30;;
30729;SDS011;17476;48.458;7.928;2023-04-20T01:35:04;0.30;;;0.30;;
30729;SDS011;17476;48.458;7.928;2023-04-20T01:37:31;0.30;;;0.30;;
30729;SDS011;17476;48.458;7.928;2023-04-20T01:39:57;0.30;;;0.30;;
30729;SDS011;17476;48.458;7.928;2023-04-20T01:42:23;0.30;;;0.30;;
30729;SDS011;17476;48.458;7.928;2023-04-20T01:44:48;0.20;;;0.20;;
30729;SDS011;17476;48.458;7.928;2023-04-20T01:47:15;0.30;;;0.30;;
30729;SDS011;17476;48.458;7.928;2023-04-20T01:49:40;0.30;;;0.30;;
30729;SDS011;17476;48.458;7.928;2023-04-20T01:52:07;0.20;;;0.20;;
30729;SDS011;17476;48.458;7.928;2023-04-20T01:54:33;0.30;;;0.30;;
30729;SDS011;17476;48.458;7.928;2023-04-20T01:57:01;0.30;;;0.30;;
30729;SDS011;17476;48.458;7.928;2023-04-20T01:59:27;0.20;;;0.20;;
30729;SDS011;17476;48.458;7.928;2023-04-20T02:01:53;0.20;;;0.20;;
30729;SDS011;17476;48.458;7.928;2023-04-20T02:04:19;0.30;;;0.30;;
30729;SDS011;17476;48.458;7.928;2023-04-20T02:06:45;0.20;;;0.20;;
30729;SDS011;17476;48.458;7.928;2023-04-20T02:09:11;0.23;;;0.23;;
30729;SDS011;17476;48.458;7.928;2023-04-20T02:11:37;0.20;;;0.20;;
30729;SDS011;17476;48.458;7.928;2023-04-20T02:14:03;0.40;;;0.40;;
30729;SDS011;17476;48.458;7.928;2023-04-20T02:16:29;0.30;;;0.30;;
30729;SDS011;17476;48.458;7.928;2023-04-20T02:18:55;0.20;;;0.20;;
30729;SDS011;17476;48.458;7.928;2023-04-20T02:21:21;0.20;;;0.20;;
30729;SDS011;17476;48.458;7.928;2023-04-20T02:23:47;0.30;;;0.30;;
30729;SDS011;17476;48.458;7.928;2023-04-20T02:26:12;0.20;;;0.20;;
30729;SDS011;17476;48.458;7.928;2023-04-20T02:28:38;0.33;;;0.33;;
30729;SDS011;17476;48.458;7.928;2023-04-20T02:31:04;0.30;;;0.30;;
30729;SDS011;17476;48.458;7.928;2023-04-20T02:33:30;0.30;;;0.30;;
30729;SDS011;17476;48.458;7.928;2023-04-20T02:35:56;0.30;;;0.30;;
30729;SDS011;17476;48.458;7.928;2023-04-20T02:38:22;0.40;;;0.40;;
30729;SDS011;17476;48.458;7.928;2023-04-20T02:40:48;0.30;;;0.30;;
30729;SDS011;17476;48.458;7.928;2023-04-20T02:43:13;0.40;;;0.40;;
30729;SDS011;17476;48.458;7.928;2023-04-20T02:45:39;0.40;;;0.40;;
30729;SDS011;17476;48.458;7.928;2023-04-20T02:48:05;0.30;;;0.30;;
30729;SDS011;17476;48.458;7.928;2023-04-20T02:50:31;0.40;;;0.40;;
30729;SDS011;17476;48.458;7.928;2023-04-20T02:52:57;0.40;;;0.40;;
30729;SDS011;17476;48.458;7.928;2023-04-20T02:55:23;0.30;;;0.30;;
30729;SDS011;17476;48.458;7.928;2023-04-20T02:57:49;0.30;;;0.30;;
30729;SDS011;17476;48.458;7.928;2023-04-20T03:00:15;0.30;;;0.30;;
30729;SDS011;17476;48.458;7.928;2023-04-20T03:02:41;0.30;;;0.30;;
30729;SDS011;17476;48.458;7.928;2023-04-20T03:05:07;0.30;;;0.30;;
30729;SDS011;17476;48.458;7.928;2023-04-20T03:07:33;0.17;;;0.17;;
30729;SDS011;17476;48.458;7.928;2023-04-20T03:09:58;0.20;;;0.20;;
30729;SDS011;17476;48.458;7.928;2023-04-20T03:12:24;0.20;;;0.20;;
30729;SDS011;17476;48.458;7.928;2023-04-20T03:14:50;0.30;;;0.30;;
30729;SDS011;17476;48.458;7.928;2023-04-20T03:17:16;0.40;;;0.40;;
30729;SDS011;17476;48.458;7.928;2023-04-20T03:19:43;0.33;;;0.33;;
30729;SDS011;17476;48.458;7.928;2023-04-20T03:22:08;0.40;;;0.40;;
30729;SDS011;17476;48.458;7.928;2023-04-20T03:24:34;0.20;;;0.20;;
30729;SDS011;17476;48.458;7.928;2023-04-20T03:27:00;0.20;;;0.20;;
30729;SDS011;17476;48.458;7.928;2023-04-20T03:29:26;0.23;;;0.23;;
30729;SDS011;17476;48.458;7.928;2023-04-20T03:31:51;0.40;;;0.40;;
30729;SDS011;17476;48.458;7.928;2023-04-20T03:34:17;0.30;;;0.30;;
30729;SDS011;17476;48.458;7.928;2023-04-20T03:36:43;0.20;;;0.20;;
30729;SDS011;17476;48.458;7.928;2023-04-20T03:39:09;0.20;;;0.20;;
30729;SDS011;17476;48.458;7.928;2023-04-20T03:41:35;0.40;;;0.40;;
30729;SDS011;17476;48.458;7.928;2023-04-20T03:44:04;0.30;;;0.30;;
30729;SDS011;17476;48.458;7.928;2023-04-20T03:46:31;0.30;;;0.30;;
30729;SDS011;17476;48.458;7.928;2023-04-20T03:48:57;0.20;;;0.20;;
30729;SDS011;17476;48.458;7.928;2023-04-20T03:51:23;0.30;;;0.30;;
30729;SDS011;17476;48.458;7.928;2023-04-20T03:53:49;0.30;;;0.30;;
30729;SDS011;17476;48.458;7.928;2023-04-20T03:56:15;0.30;;;0.30;;
30729;SDS011;17476;48.458;7.928;2023-04-20T03:58:41;0.33;;;0.33;;
30729;SDS011;17476;48.458;7.928;2023-04-20T04:01:09;0.30;;;0.30;;
30729;SDS011;17476;48.458;7.928;2023-04-20T04:03:37;0.30;;;0.30;;
30729;SDS011;17476;48.458;7.928;2023-04-20T04:06:03;0.23;;;0.23;;
30729;SDS011;17476;48.458;7.928;2023-04-20T04:08:29;0.30;;;0.30;;
30729;SDS011;17476;48.458;7.928;2023-04-20T04:10:56;0.20;;;0.20;;
30729;SDS011;17476;48.458;7.928;2023-04-20T04:13:22;0.30;;;0.30;;
30729;SDS011;17476;48.458;7.928;2023-04-20T04:15:48;0.40;;;0.40;;
30729;SDS011;17476;48.458;7.928;2023-04-20T04:18:14;0.20;;;0.20;;
30729;SDS011;17476;48.458;7.928;2023-04-20T04:20:40;0.30;;;0.30;;
30729;SDS011;17476;48.458;7.928;2023-04-20T04:23:06;0.30;;;0.30;;
30729;SDS011;17476;48.458;7.928;2023-04-20T04:25:31;0.30;;;0.30;;
30729;SDS011;17476;48.458;7.928;2023-04-20T04:27:58;0.40;;;0.40;;
30729;SDS011;17476;48.458;7.928;2023-04-20T04:30:24;0.30;;;0.30;;
30729;SDS011;17476;48.458;7.928;2023-04-20T04:32:51;0.40;;;0.40;;
30729;SDS011;17476;48.458;7.928;2023-04-20T04:35:17;0.20;;;0.20;;
30729;SDS011;17476;48.458;7.928;2023-04-20T04:37:42;0.30;;;0.30;;
30729;SDS011;17476;48.458;7.928;2023-04-20T04:40:08;0.30;;;0.30;;
30729;SDS011;17476;48.458;7.928;2023-04-20T04:42:34;0.20;;;0.20;;
30729;SDS011;17476;48.458;7.928;2023-04-20T04:45:01;0.30;;;0.30;;
30729;SDS011;17476;48.458;7.928;2023-04-20T04:47:28;0.30;;;0.30;;
30729;SDS011;17476;48.458;7.928;2023-04-20T04:50:01;0.20;;;0.20;;
30729;SDS011;17476;48.458;7.928;2023-04-20T04:52:29;0.40;;;0.40;;
30729;SDS011;17476;48.458;7.928;2023-04-20T04:54:59;0.33;;;0.33;;
30729;SDS011;17476;48.458;7.928;2023-04-20T04:57:25;0.30;;;0.30;;
30729;SDS011;17476;48.458;7.928;2023-04-20T04:59:51;0.30;;;0.30;;
30729;SDS011;17476;48.458;7.928;2023-04-20T05:02:17;0.40;;;0.40;;
30729;SDS011;17476;48.458;7.928;2023-04-20T05:04:43;0.33;;;0.33;;
30729;SDS011;17476;48.458;7.928;2023-04-20T05:07:09;0.30;;;0.30;;
30729;SDS011;17476;48.458;7.928;2023-04-20T05:09:35;0.40;;;0.40;;
30729;SDS011;17476;48.458;7.928;2023-04-20T05:12:01;0.40;;;0.40;;
30729;SDS011;17476;48.458;7.928;2023-04-20T05:14:29;0.30;;;0.30;;
30729;SDS011;17476;48.458;7.928;2023-04-20T05:16:56;0.30;;;0.30;;
30729;SDS011;17476;48.458;7.928;2023-04-20T05:19:23;0.20;;;0.20;;
30729;SDS011;17476;48.458;7.928;2023-04-20T05:21:49;0.40;;;0.40;;
30729;SDS011;17476;48.458;7.928;2023-04-20T05:24:15;0.40;;;0.40;;
30729;SDS011;17476;48.458;7.928;2023-04-20T05:26:41;0.40;;;0.40;;
30729;SDS011;17476;48.458;7.928;2023-04-20T05:29:07;0.40;;;0.40;;
30729;SDS011;17476;48.458;7.928;2023-04-20T05:31:34;0.40;;;0.40;;
30729;SDS011;17476;48.458;7.928;2023-04-20T05:34:00;0.30;;;0.30;;
30729;SDS011;17476;48.458;7.928;2023-04-20T05:36:27;0.20;;;0.20;;
30729;SDS011;17476;48.458;7.928;2023-04-20T05:38:54;0.40;;;0.40;;
30729;SDS011;17476;48.458;7.928;2023-04-20T05:41:19;0.30;;;0.30;;
30729;SDS011;17476;48.458;7.928;2023-04-20T05:43:50;0.20;;;0.20;;
30729;SDS011;17476;48.458;7.928;2023-04-20T05:46:17;0.30;;;0.30;;
30729;SDS011;17476;48.458;7.928;2023-04-20T05:48:43;0.30;;;0.30;;
30729;SDS011;17476;48.458;7.928;2023-04-20T05:51:08;0.30;;;0.30;;
30729;SDS011;17476;48.458;7.928;2023-04-20T05:53:34;0.30;;;0.30;;
30729;SDS011;17476;48.458;7.928;2023-04-20T05:56:00;0.40;;;0.40;;
30729;SDS011;17476;48.458;7.928;2023-04-20T05:58:27;0.30;;;0.30;;
30729;SDS011;17476;48.458;7.928;2023-04-20T06:00:53;0.30;;;0.30;;
30729;SDS011;17476;48.458;7.928;2023-04-20T06:03:19;0.30;;;0.30;;
30729;SDS011;17476;48.458;7.928;2023-04-20T06:05:44;0.30;;;0.30;;
30729;SDS011;17476;48.458;7.928;2023-04-20T06:08:10;0.20;;;0.20;;
30729;SDS011;17476;48.458;7.928;2023-04-20T06:10:36;0.23;;;0.23;;
30729;SDS011;17476;48.458;7.928;2023-04-20T06:13:02;0.30;;;0.30;;
30729;SDS011;17476;48.458;7.928;2023-04-20T06:15:28;0.30;;;0.30;;
30729;SDS011;17476;48.458;7.928;2023-04-20T06:17:54;0.27;;;0.27;;
30729;SDS011;17476;48.458;7.928;2023-04-20T06:20:20;0.20;;;0.20;;
30729;SDS011;17476;48.458;7.928;2023-04-20T06:22:46;0.30;;;0.30;;
30729;SDS011;17476;48.458;7.928;2023-04-20T06:25:12;0.20;;;0.20;;
30729;SDS011;17476;48.458;7.928;2023-04-20T06:27:39;0.30;;;0.30;;
30729;SDS011;17476;48.458;7.928;2023-04-20T06:30:06;0.30;;;0.30;;
30729;SDS011;17476;48.458;7.928;2023-04-20T06:32:32;0.30;;;0.30;;
30729;SDS011;17476;48.458;7.928;2023-04-20T06:34:58;0.30;;;0.30;;
30729;SDS011;17476;48.458;7.928;2023-04-20T06:37:24;0.20;;;0.20;;
30729;SDS011;17476;48.458;7.928;2023-04-20T06:39:53;0.17;;;0.17;;
30729;SDS011;17476;48.458;7.928;2023-04-20T06:42:19;0.20;;;0.20;;
30729;SDS011;17476;48.458;7.928;2023-04-20T06:44:45;0.30;;;0.30;;
30729;SDS011;17476;48.458;7.928;2023-04-20T06:47:11;0.23;;;0.23;;
30729;SDS011;17476;48.458;7.928;2023-04-20T06:49:37;0.10;;;0.10;;
30729;SDS011;17476;48.458;7.928;2023-04-20T06:52:03;0.30;;;0.30;;
30729;SDS011;17476;48.458;7.928;2023-04-20T06:54:30;0.30;;;0.30;;
30729;SDS011;17476;48.458;7.928;2023-04-20T06:56:56;0.30;;;0.30;;
30729;SDS011;17476;48.458;7.928;2023-04-20T06:59:22;0.27;;;0.27;;
30729;SDS011;17476;48.458;7.928;2023-04-20T07:01:48;0.20;;;0.20;;
30729;SDS011;17476;48.458;7.928;2023-04-20T07:04:14;0.40;;;0.40;;
30729;SDS011;17476;48.458;7.928;2023-04-20T07:06:40;0.20;;;0.20;;
30729;SDS011;17476;48.458;7.928;2023-04-20T07:09:06;0.20;;;0.20;;
30729;SDS011;17476;48.458;7.928;2023-04-20T07:11:33;0.10;;;0.10;;
30729;SDS011;17476;48.458;7.928;2023-04-20T07:13:59;0.20;;;0.20;;
30729;SDS011;17476;48.458;7.928;2023-04-20T07:16:24;0.20;;;0.20;;
30729;SDS011;17476;48.458;7.928;2023-04-20T07:18:50;0.20;;;0.20;;
30729;SDS011;17476;48.458;7.928;2023-04-20T07:21:16;0.10;;;0.10;;
30729;SDS011;17476;48.458;7.928;2023-04-20T07:23:42;0.20;;;0.20;;
30729;SDS011;17476;48.458;7.928;2023-04-20T07:26:08;0.20;;;0.20;;
30729;SDS011;17476;48.458;7.928;2023-04-20T07:28:33;0.10;;;0.10;;
30729;SDS011;17476;48.458;7.928;2023-04-20T07:31:00;0.20;;;0.20;;
30729;SDS011;17476;48.458;7.928;2023-04-20T07:33:26;0.20;;;0.20;;
30729;SDS011;17476;48.458;7.928;2023-04-20T07:35:53;0.10;;;0.10;;
30729;SDS011;17476;48.458;7.928;2023-04-20T07:38:19;0.20;;;0.20;;
30729;SDS011;17476;48.458;7.928;2023-04-20T07:40:45;0.17;;;0.17;;
30729;SDS011;17476;48.458;7.928;2023-04-20T07:43:11;0.10;;;0.10;;
30729;SDS011;17476;48.458;7.928;2023-04-20T07:45:40;0.10;;;0.10;;
30729;SDS011;17476;48.458;7.928;2023-04-20T07:48:06;0.10;;;0.10;;
30729;SDS011;17476;48.458;7.928;2023-04-20T07:50:34;0.10;;;0.10;;
30729;SDS011;17476;48.458;7.928;2023-04-20T07:53:00;0.10;;;0.10;;
30729;SDS011;17476;48.458;7.928;2023-04-20T07:55:26;0.10;;;0.10;;
30729;SDS011;17476;48.458;7.928;2023-04-20T07:57:52;0.10;;;0.10;;
30729;SDS011;17476;48.458;7.928;2023-04-20T08:00:18;0.10;;;0.10;;
30729;SDS011;17476;48.458;7.928;2023-04-20T08:02:44;0.10;;;0.10;;
30729;SDS011;17476;48.458;7.928;2023-04-20T08:05:10;0.10;;;0.10;;
30729;SDS011;17476;48.458;7.928;2023-04-20T08:07:36;0.10;;;0.10;;
30729;SDS011;17476;48.458;7.928;2023-04-20T08:10:02;0.10;;;0.10;;
30729;SDS011;17476;48.458;7.928;2023-04-20T08:12:30;0.10;;;0.10;;
30729;SDS011;17476;48.458;7.928;2023-04-20T08:14:55;0.00;;;0.00;;
30729;SDS011;17476;48.458;7.928;2023-04-20T08:17:28;0.00;;;0.00;;
30729;SDS011;17476;48.458;7.928;2023-04-20T08:19:54;0.07;;;0.07;;
30729;SDS011;17476;48.458;7.928;2023-04-20T08:22:20;0.10;;;0.10;;
30729;SDS011;17476;48.458;7.928;2023-04-20T08:24:48;0.00;;;0.00;;
30729;SDS011;17476;48.458;7.928;2023-04-20T08:27:14;0.00;;;0.00;;
30729;SDS011;17476;48.458;7.928;2023-04-20T08:29:39;0.10;;;0.10;;
30729;SDS011;17476;48.458;7.928;2023-04-20T08:32:05;0.10;;;0.10;;
30729;SDS011;17476;48.458;7.928;2023-04-20T08:34:36;0.03;;;0.03;;
30729;SDS011;17476;48.458;7.928;2023-04-20T08:37:03;0.10;;;0.10;;
30729;SDS011;17476;48.458;7.928;2023-04-20T08:39:29;0.10;;;0.10;;
30729;SDS011;17476;48.458;7.928;2023-04-20T08:41:55;0.10;;;0.10;;
30729;SDS011;17476;48.458;7.928;2023-04-20T08:44:22;0.00;;;0.00;;
30729;SDS011;17476;48.458;7.928;2023-04-20T08:46:49;0.00;;;0.00;;
30729;SDS011;17476;48.458;7.928;2023-04-20T08:49:15;0.00;;;0.00;;
30729;SDS011;17476;48.458;7.928;2023-04-20T08:51:43;0.10;;;0.10;;
30729;SDS011;17476;48.458;7.928;2023-04-20T08:54:11;0.10;;;0.10;;
30729;SDS011;17476;48.458;7.928;2023-04-20T08:56:38;0.10;;;0.10;;
30729;SDS011;17476;48.458;7.928;2023-04-20T08:59:06;0.10;;;0.10;;
30729;SDS011;17476;48.458;7.928;2023-04-20T09:01:36;0.10;;;0.10;;
30729;SDS011;17476;48.458;7.928;2023-04-20T09:04:24;0.10;;;0.10;;
30729;SDS011;17476;48.458;7.928;2023-04-20T09:06:51;0.10;;;0.10;;
30729;SDS011;17476;48.458;7.928;2023-04-20T09:09:20;0.10;;;0.10;;
30729;SDS011;17476;48.458;7.928;2023-04-20T09:11:58;0.10;;;0.10;;
30729;SDS011;17476;48.458;7.928;2023-04-20T09:14:46;0.20;;;0.20;;
30729;SDS011;17476;48.458;7.928;2023-04-20T09:17:13;0.10;;;0.10;;
30729;SDS011;17476;48.458;7.928;2023-04-20T09:19:44;0.10;;;0.10;;
30729;SDS011;17476;48.458;7.928;2023-04-20T09:22:17;0.10;;;0.10;;
30729;SDS011;17476;48.458;7.928;2023-04-20T09:24:58;0.10;;;0.10;;
30729;SDS011;17476;48.458;7.928;2023-04-20T09:27:25;0.13;;;0.13;;
30729;SDS011;17476;48.458;7.928;2023-04-20T09:30:00;0.10;;;0.10;;
30729;SDS011;17476;48.458;7.928;2023-04-20T09:32:30;0.20;;;0.20;;
30729;SDS011;17476;48.458;7.928;2023-04-20T09:34:57;0.10;;;0.10;;
30729;SDS011;17476;48.458;7.928;2023-04-20T09:37:23;0.20;;;0.20;;
30729;SDS011;17476;48.458;7.928;2023-04-20T09:39:49;0.10;;;0.10;;
30729;SDS011;17476;48.458;7.928;2023-04-20T09:42:16;0.10;;;0.10;;
30729;SDS011;17476;48.458;7.928;2023-04-20T09:44:42;0.10;;;0.10;;
30729;SDS011;17476;48.458;7.928;2023-04-20T09:47:09;0.03;;;0.03;;
30729;SDS011;17476;48.458;7.928;2023-04-20T09:49:43;0.10;;;0.10;;
30729;SDS011;17476;48.458;7.928;2023-04-20T09:52:10;0.20;;;0.20;;
30729;SDS011;17476;48.458;7.928;2023-04-20T09:54:42;0.10;;;0.10;;
30729;SDS011;17476;48.458;7.928;2023-04-20T09:57:09;0.10;;;0.10;;
30729;SDS011;17476;48.458;7.928;2023-04-20T09:59:37;0.10;;;0.10;;
30729;SDS011;17476;48.458;7.928;2023-04-20T10:02:09;0.20;;;0.20;;
30729;SDS011;17476;48.458;7.928;2023-04-20T10:04:37;0.10;;;0.10;;
30729;SDS011;17476;48.458;7.928;2023-04-20T10:07:21;0.10;;;0.10;;
30729;SDS011;17476;48.458;7.928;2023-04-20T10:10:11;0.10;;;0.10;;
30729;SDS011;17476;48.458;7.928;2023-04-20T10:12:49;0.10;;;0.10;;
30729;SDS011;17476;48.458;7.928;2023-04-20T10:15:19;0.07;;;0.07;;
30729;SDS011;17476;48.458;7.928;2023-04-20T10:17:47;0.10;;;0.10;;
30729;SDS011;17476;48.458;7.928;2023-04-20T10:20:16;0.10;;;0.10;;
30729;SDS011;17476;48.458;7.928;2023-04-20T10:22:45;0.20;;;0.20;;
30729;SDS011;17476;48.458;7.928;2023-04-20T10:25:14;0.20;;;0.20;;
30729;SDS011;17476;48.458;7.928;2023-04-20T10:30:18;0.10;;;0.10;;
30729;SDS011;17476;48.458;7.928;2023-04-20T10:32:45;0.10;;;0.10;;
30729;SDS011;17476;48.458;7.928;2023-04-20T10:35:11;0.20;;;0.20;;
30729;SDS011;17476;48.458;7.928;2023-04-20T10:37:46;0.10;;;0.10;;
30729;SDS011;17476;48.458;7.928;2023-04-20T10:40:15;0.10;;;0.10;;
30729;SDS011;17476;48.458;7.928;2023-04-20T10:42:49;0.10;;;0.10;;
30729;SDS011;17476;48.458;7.928;2023-04-20T10:45:15;0.03;;;0.03;;
30729;SDS011;17476;48.458;7.928;2023-04-20T10:47:41;0.10;;;0.10;;
30729;SDS011;17476;48.458;7.928;2023-04-20T10:50:10;0.00;;;0.00;;
30729;SDS011;17476;48.458;7.928;2023-04-20T10:52:39;0.10;;;0.10;;
30729;SDS011;17476;48.458;7.928;2023-04-20T10:55:23;0.10;;;0.10;;
30729;SDS011;17476;48.458;7.928;2023-04-20T10:57:50;0.10;;;0.10;;
30729;SDS011;17476;48.458;7.928;2023-04-20T11:00:17;0.00;;;0.00;;
30729;SDS011;17476;48.458;7.928;2023-04-20T11:02:53;0.10;;;0.10;;
30729;SDS011;17476;48.458;7.928;2023-04-20T11:05:21;0.10;;;0.10;;
30729;SDS011;17476;48.458;7.928;2023-04-20T11:07:53;0.10;;;0.10;;
30729;SDS011;17476;48.458;7.928;2023-04-20T11:10:22;0.17;;;0.17;;
30729;SDS011;17476;48.458;7.928;2023-04-20T11:13:05;0.10;;;0.10;;
30729;SDS011;17476;48.458;7.928;2023-04-20T11:15:32;0.20;;;0.20;;
30729;SDS011;17476;48.458;7.928;2023-04-20T11:18:05;0.10;;;0.10;;
30729;SDS011;17476;48.458;7.928;2023-04-20T11:20:32;0.10;;;0.10;;
30729;SDS011;17476;48.458;7.928;2023-04-20T11:22:58;0.00;;;0.00;;
30729;SDS011;17476;48.458;7.928;2023-04-20T11:25:24;0.10;;;0.10;;
30729;SDS011;17476;48.458;7.928;2023-04-20T11:27:51;0.10;;;0.10;;
30729;SDS011;17476;48.458;7.928;2023-04-20T11:30:17;0.10;;;0.10;;
30729;SDS011;17476;48.458;7.928;2023-04-20T11:32:52;0.10;;;0.10;;
30729;SDS011;17476;48.458;7.928;2023-04-20T11:35:18;0.10;;;0.10;;
30729;SDS011;17476;48.458;7.928;2023-04-20T11:37:50;0.10;;;0.10;;
30729;SDS011;17476;48.458;7.928;2023-04-20T11:40:17;0.10;;;0.10;;
30729;SDS011;17476;48.458;7.928;2023-04-20T11:42:43;0.10;;;0.10;;
30729;SDS011;17476;48.458;7.928;2023-04-20T11:45:10;0.07;;;0.07;;
30729;SDS011;17476;48.458;7.928;2023-04-20T11:47:37;0.10;;;0.10;;
30729;SDS011;17476;48.458;7.928;2023-04-20T11:50:05;0.10;;;0.10;;
30729;SDS011;17476;48.458;7.928;2023-04-20T11:52:32;0.10;;;0.10;;
30729;SDS011;17476;48.458;7.928;2023-04-20T11:54:58;0.10;;;0.10;;
30729;SDS011;17476;48.458;7.928;2023-04-20T11:57:24;0.10;;;0.10;;
30729;SDS011;17476;48.458;7.928;2023-04-20T11:59:50;0.10;;;0.10;;
30729;SDS011;17476;48.458;7.928;2023-04-20T12:02:16;0.07;;;0.07;;
30729;SDS011;17476;48.458;7.928;2023-04-20T12:04:41;0.10;;;0.10;;
30729;SDS011;17476;48.458;7.928;2023-04-20T12:07:07;0.07;;;0.07;;
30729;SDS011;17476;48.458;7.928;2023-04-20T12:09:33;0.10;;;0.10;;
30729;SDS011;17476;48.458;7.928;2023-04-20T12:12:04;0.10;;;0.10;;
30729;SDS011;17476;48.458;7.928;2023-04-20T12:14:30;0.00;;;0.00;;
30729;SDS011;17476;48.458;7.928;2023-04-20T12:16:59;0.10;;;0.10;;
30729;SDS011;17476;48.458;7.928;2023-04-20T12:19:26;0.00;;;0.00;;
30729;SDS011;17476;48.458;7.928;2023-04-20T12:21:52;0.10;;;0.10;;
30729;SDS011;17476;48.458;7.928;2023-04-20T12:24:17;0.10;;;0.10;;
30729;SDS011;17476;48.458;7.928;2023-04-20T12:26:43;0.10;;;0.10;;
30729;SDS011;17476;48.458;7.928;2023-04-20T12:29:10;0.00;;;0.00;;
30729;SDS011;17476;48.458;7.928;2023-04-20T12:31:35;0.10;;;0.10;;
30729;SDS011;17476;48.458;7.928;2023-04-20T12:34:01;0.10;;;0.10;;
30729;SDS011;17476;48.458;7.928;2023-04-20T12:36:28;0.10;;;0.10;;
30729;SDS011;17476;48.458;7.928;2023-04-20T12:38:53;0.10;;;0.10;;
30729;SDS011;17476;48.458;7.928;2023-04-20T12:41:20;0.10;;;0.10;;
30729;SDS011;17476;48.458;7.928;2023-04-20T12:43:48;0.00;;;0.00;;
30729;SDS011;17476;48.458;7.928;2023-04-20T12:46:14;0.03;;;0.03;;
30729;SDS011;17476;48.458;7.928;2023-04-20T12:48:41;0.10;;;0.10;;
30729;SDS011;17476;48.458;7.928;2023-04-20T12:51:09;0.10;;;0.10;;
30729;SDS011;17476;48.458;7.928;2023-04-20T12:53:36;0.00;;;0.00;;
30729;SDS011;17476;48.458;7.928;2023-04-20T12:56:02;0.10;;;0.10;;
30729;SDS011;17476;48.458;7.928;2023-04-20T12:58:29;0.10;;;0.10;;
30729;SDS011;17476;48.458;7.928;2023-04-20T13:00:55;0.00;;;0.00;;
30729;SDS011;17476;48.458;7.928;2023-04-20T13:03:22;0.10;;;0.10;;
30729;SDS011;17476;48.458;7.928;2023-04-20T13:05:48;0.00;;;0.00;;
30729;SDS011;17476;48.458;7.928;2023-04-20T13:08:14;0.10;;;0.10;;
30729;SDS011;17476;48.458;7.928;2023-04-20T13:10:40;0.10;;;0.10;;
30729;SDS011;17476;48.458;7.928;2023-04-20T13:13:07;0.03;;;0.03;;
30729;SDS011;17476;48.458;7.928;2023-04-20T13:15:34;0.10;;;0.10;;
30729;SDS011;17476;48.458;7.928;2023-04-20T13:18:00;0.00;;;0.00;;
30729;SDS011;17476;48.458;7.928;2023-04-20T13:20:26;0.10;;;0.10;;
30729;SDS011;17476;48.458;7.928;2023-04-20T13:23:00;0.10;;;0.10;;
30729;SDS011;17476;48.458;7.928;2023-04-20T13:25:28;0.00;;;0.00;;
30729;SDS011;17476;48.458;7.928;2023-04-20T13:27:59;0.10;;;0.10;;
30729;SDS011;17476;48.458;7.928;2023-04-20T13:30:26;0.10;;;0.10;;
30729;SDS011;17476;48.458;7.928;2023-04-20T13:32:52;0.10;;;0.10;;
30729;SDS011;17476;48.458;7.928;2023-04-20T13:35:18;0.10;;;0.10;;
30729;SDS011;17476;48.458;7.928;2023-04-20T13:37:44;0.10;;;0.10;;
30729;SDS011;17476;48.458;7.928;2023-04-20T13:40:11;0.00;;;0.00;;
30729;SDS011;17476;48.458;7.928;2023-04-20T13:42:37;0.10;;;0.10;;
30729;SDS011;17476;48.458;7.928;2023-04-20T13:45:03;0.00;;;0.00;;
30729;SDS011;17476;48.458;7.928;2023-04-20T13:47:30;0.10;;;0.10;;
30729;SDS011;17476;48.458;7.928;2023-04-20T13:49:56;0.10;;;0.10;;
30729;SDS011;17476;48.458;7.928;2023-04-20T13:52:22;0.00;;;0.00;;
30729;SDS011;17476;48.458;7.928;2023-04-20T13:54:48;0.03;;;0.03;;
30729;SDS011;17476;48.458;7.928;2023-04-20T13:57:14;0.10;;;0.10;;
30729;SDS011;17476;48.458;7.928;2023-04-20T13:59:41;0.00;;;0.00;;
30729;SDS011;17476;48.458;7.928;2023-04-20T14:02:07;0.00;;;0.00;;
30729;SDS011;17476;48.458;7.928;2023-04-20T14:04:33;0.10;;;0.10;;
30729;SDS011;17476;48.458;7.928;2023-04-20T14:06:58;0.00;;;0.00;;
30729;SDS011;17476;48.458;7.928;2023-04-20T14:09:24;0.00;;;0.00;;
30729;SDS011;17476;48.458;7.928;2023-04-20T14:11:52;0.17;;;0.17;;
30729;SDS011;17476;48.458;7.928;2023-04-20T14:14:18;0.10;;;0.10;;
30729;SDS011;17476;48.458;7.928;2023-04-20T14:16:44;0.00;;;0.00;;
30729;SDS011;17476;48.458;7.928;2023-04-20T14:19:12;0.10;;;0.10;;
30729;SDS011;17476;48.458;7.928;2023-04-20T14:21:39;0.10;;;0.10;;
30729;SDS011;17476;48.458;7.928;2023-04-20T14:24:05;0.10;;;0.10;;
30729;SDS011;17476;48.458;7.928;2023-04-20T14:26:31;0.10;;;0.10;;
30729;SDS011;17476;48.458;7.928;2023-04-20T14:28:57;0.10;;;0.10;;
30729;SDS011;17476;48.458;7.928;2023-04-20T14:31:23;0.00;;;0.00;;
30729;SDS011;17476;48.458;7.928;2023-04-20T14:33:49;0.10;;;0.10;;
30729;SDS011;17476;48.458;7.928;2023-04-20T14:36:15;0.10;;;0.10;;
30729;SDS011;17476;48.458;7.928;2023-04-20T14:38:41;0.10;;;0.10;;
30729;SDS011;17476;48.458;7.928;2023-04-20T14:41:06;0.10;;;0.10;;
30729;SDS011;17476;48.458;7.928;2023-04-20T14:43:32;0.20;;;0.20;;
30729;SDS011;17476;48.458;7.928;2023-04-20T14:45:59;0.10;;;0.10;;
30729;SDS011;17476;48.458;7.928;2023-04-20T14:48:26;0.10;;;0.10;;
30729;SDS011;17476;48.458;7.928;2023-04-20T14:50:52;0.10;;;0.10;;